Time;durP1;ratioP1;P1;durP2;ratioP2;P2;SDS_P1;SDS_P2;PMS_P1;PMS_P2;Temp;Humidity;BMP_temperature;BMP_pressure;BME280_temperature;BME280_humidity;BME280_pressure;Samples;Min_cycle;Max_cycle;Signal;HPM_P1;HPM_P2
2021/12/17 08:08:14;;;;;;;13.27;10.18;;;;;;;;;;5210849;23;20921;-47
2021/12/17 08:10:40;;;;;;;14.50;11.07;;;;;;;;;;4971595;28;20411;-45
2021/12/17 08:13:11;;;;;;;14.25;11.98;;;;;;;;;;4972568;28;20801;-53
2021/12/17 08:15:45;;;;;;;11.65;9.05;;;;;;;;;;4972206;28;20381;-51
2021/12/17 08:26:25;;;;;;;9.30;7.93;;;;;;;;;;4970428;28;20439;-46
2021/12/17 08:29:06;;;;;;;9.60;7.50;;;;;;;;;;4963985;28;20419;-44
2021/12/17 08:31:36;;;;;;;9.07;7.00;;;;;;;;;;4969245;28;20439;-45
2021/12/17 08:34:03;;;;;;;8.80;6.75;;;;;;;;;;4969479;28;20758;-44
2021/12/17 08:36:32;;;;;;;8.80;6.65;;;;;;;;;;4970083;28;20769;-48
2021/12/17 08:38:58;;;;;;;10.05;6.90;;;;;;;;;;4967829;28;20894;-44
2021/12/17 08:41:26;;;;;;;10.40;6.93;;;;;;;;;;4971299;28;20388;-45
2021/12/17 08:43:54;;;;;;;9.30;6.37;;;;;;;;;;4955449;28;20450;-45
2021/12/17 08:46:21;;;;;;;8.73;6.15;;;;;;;;;;4972232;28;20422;-47
2021/12/17 08:48:47;;;;;;;7.97;5.45;;;;;;;;;;4972224;28;20400;-46
2021/12/17 08:51:13;;;;;;;8.63;6.03;;;;;;;;;;4970992;28;20431;-46
2021/12/17 08:53:39;;;;;;;7.93;5.95;;;;;;;;;;4969802;28;20446;-46
2021/12/17 08:56:05;;;;;;;7.93;5.60;;;;;;;;;;4970969;28;20403;-44
2021/12/17 08:58:33;;;;;;;8.27;5.40;;;;;;;;;;4967564;28;20437;-43
2021/12/17 09:01:03;;;;;;;8.60;5.65;;;;;;;;;;4965846;28;20460;-45
2021/12/17 09:03:29;;;;;;;7.20;5.20;;;;;;;;;;4968326;28;20817;-46
2021/12/17 09:05:55;;;;;;;7.80;5.68;;;;;;;;;;4970565;28;20889;-45
2021/12/17 09:08:22;;;;;;;7.40;5.45;;;;;;;;;;4961422;28;20779;-44
2021/12/17 09:10:51;;;;;;;7.68;5.28;;;;;;;;;;4971387;28;20392;-48
2021/12/17 09:13:17;;;;;;;9.70;5.55;;;;;;;;;;4971516;28;20389;-45
2021/12/17 09:15:43;;;;;;;7.68;5.53;;;;;;;;;;4959990;28;20379;-47
2021/12/17 09:18:09;;;;;;;7.93;5.57;;;;;;;;;;4939067;28;20446;-49
2021/12/17 09:20:36;;;;;;;7.97;5.63;;;;;;;;;;4947089;28;20827;-49
2021/12/17 09:23:02;;;;;;;6.57;5.30;;;;;;;;;;4964598;28;21317;-45
2021/12/17 09:25:29;;;;;;;7.68;5.35;;;;;;;;;;4965822;28;20412;-52
2021/12/17 09:27:58;;;;;;;7.10;5.20;;;;;;;;;;4964705;28;20388;-48
2021/12/17 09:30:24;;;;;;;7.28;5.20;;;;;;;;;;4964899;28;20380;-50
2021/12/17 09:32:51;;;;;;;8.00;5.15;;;;;;;;;;4963181;28;20401;-50
2021/12/17 09:35:17;;;;;;;7.10;5.53;;;;;;;;;;4968425;28;20385;-48
2021/12/17 09:37:43;;;;;;;6.90;5.10;;;;;;;;;;4965358;28;20820;-47
2021/12/17 09:40:10;;;;;;;7.40;5.30;;;;;;;;;;4946815;28;20899;-48
2021/12/17 09:42:39;;;;;;;6.93;5.20;;;;;;;;;;4967975;28;20404;-51
2021/12/17 09:45:06;;;;;;;7.88;5.57;;;;;;;;;;4967322;28;20486;-47
2021/12/17 09:47:32;;;;;;;7.72;5.43;;;;;;;;;;4947780;28;20404;-54
2021/12/17 09:50:01;;;;;;;7.25;5.28;;;;;;;;;;4967921;28;20408;-48
2021/12/17 09:52:27;;;;;;;7.70;5.05;;;;;;;;;;4963176;28;20394;-45
2021/12/17 09:54:57;;;;;;;6.90;5.20;;;;;;;;;;4947370;28;20803;-47
2021/12/17 09:57:25;;;;;;;7.57;5.50;;;;;;;;;;4966309;28;20404;-46
2021/12/17 09:59:52;;;;;;;6.95;5.70;;;;;;;;;;4962721;28;20397;-46
2021/12/17 10:02:18;;;;;;;7.82;6.38;;;;;;;;;;4963799;28;20443;-47
2021/12/17 10:04:45;;;;;;;9.68;6.72;;;;;;;;;;4965241;28;20403;-49
2021/12/17 10:07:20;;;;;;;7.80;6.20;;;;;;;;;;4963320;28;20432;-47
2021/12/17 10:09:47;;;;;;;9.20;6.63;;;;;;;;;;4959538;28;20525;-48
2021/12/17 10:12:14;;;;;;;9.23;6.32;;;;;;;;;;4965236;28;20459;-45
2021/12/17 10:14:41;;;;;;;16.08;12.23;;;;;;;;;;4951432;28;20412;-55
2021/12/17 10:17:11;;;;;;;15.30;11.27;;;;;;;;;;4973505;28;20431;-49
2021/12/17 10:19:41;;;;;;;16.45;12.40;;;;;;;;;;4973897;28;20408;-48
2021/12/17 10:22:11;;;;;;;18.50;13.13;;;;;;;;;;4967196;28;20392;-51
2021/12/17 10:24:38;;;;;;;18.85;12.43;;;;;;;;;;4967155;28;20479;-49
2021/12/17 10:27:25;;;;;;;21.38;14.02;;;;;;;;;;4965104;28;20461;-49
2021/12/17 10:29:51;;;;;;;18.73;12.50;;;;;;;;;;4967415;28;20436;-48
2021/12/17 10:32:19;;;;;;;18.60;13.40;;;;;;;;;;4971908;28;20892;-48
2021/12/17 10:35:01;;;;;;;18.35;12.05;;;;;;;;;;4970520;28;20392;-50
2021/12/17 10:37:31;;;;;;;18.27;11.82;;;;;;;;;;4964069;28;21002;-51
2021/12/17 10:39:57;;;;;;;17.77;12.02;;;;;;;;;;4970304;28;20472;-50
2021/12/17 10:42:37;;;;;;;15.90;10.70;;;;;;;;;;4962857;28;20480;-53
2021/12/17 10:45:11;;;;;;;17.57;12.20;;;;;;;;;;4970770;28;20430;-53
2021/12/17 10:47:38;;;;;;;19.00;12.55;;;;;;;;;;4954195;28;20764;-48
2021/12/17 10:50:09;;;;;;;20.48;13.50;;;;;;;;;;4971586;28;20820;-45
2021/12/17 10:52:41;;;;;;;17.98;12.85;;;;;;;;;;4972468;28;20443;-49
2021/12/17 10:55:13;;;;;;;19.98;13.70;;;;;;;;;;4972139;28;20416;-48
2021/12/17 10:57:45;;;;;;;17.33;12.33;;;;;;;;;;4973532;28;20376;-49
2021/12/17 11:00:12;;;;;;;16.65;11.85;;;;;;;;;;4960471;28;20487;-49
2021/12/17 11:02:41;;;;;;;15.95;11.38;;;;;;;;;;4973778;28;20461;-45
2021/12/17 11:05:10;;;;;;;18.10;12.63;;;;;;;;;;4971059;28;20416;-48
2021/12/17 11:07:38;;;;;;;18.63;12.43;;;;;;;;;;4964511;28;20802;-44
2021/12/17 11:10:05;;;;;;;21.83;13.25;;;;;;;;;;4945035;28;20409;-46
2021/12/17 11:12:34;;;;;;;17.25;11.95;;;;;;;;;;4974038;28;20497;-47
2021/12/17 11:15:11;;;;;;;17.67;11.80;;;;;;;;;;4970656;28;20410;-47
2021/12/17 11:17:38;;;;;;;14.88;10.75;;;;;;;;;;4964895;28;20376;-50
2021/12/17 11:20:25;;;;;;;18.00;12.75;;;;;;;;;;4973525;28;20464;-45
2021/12/17 11:22:51;;;;;;;16.33;11.10;;;;;;;;;;4971491;28;20514;-46
2021/12/17 11:25:18;;;;;;;14.38;10.88;;;;;;;;;;4956349;28;20931;-46
2021/12/17 11:27:44;;;;;;;13.70;10.05;;;;;;;;;;4954765;28;20392;-50
2021/12/17 11:30:12;;;;;;;13.60;9.90;;;;;;;;;;4958441;28;21118;-45
2021/12/17 11:32:39;;;;;;;13.00;9.45;;;;;;;;;;4953964;28;20389;-46
2021/12/17 11:35:05;;;;;;;12.88;9.68;;;;;;;;;;4972140;28;20376;-45
2021/12/17 11:37:34;;;;;;;11.50;8.67;;;;;;;;;;4972266;28;20919;-47
2021/12/17 11:40:02;;;;;;;11.88;8.80;;;;;;;;;;4972419;28;20388;-47
2021/12/17 11:42:49;;;;;;;13.10;8.60;;;;;;;;;;4972621;28;20384;-46
2021/12/17 11:45:29;;;;;;;12.20;8.05;;;;;;;;;;4959883;28;21036;-48
2021/12/17 11:48:11;;;;;;;12.57;8.30;;;;;;;;;;4964493;28;20864;-49
2021/12/17 11:50:39;;;;;;;17.15;8.32;;;;;;;;;;4970619;28;20907;-46
2021/12/17 11:53:20;;;;;;;12.70;7.75;;;;;;;;;;4972498;28;20427;-49
2021/12/17 11:55:50;;;;;;;11.27;7.47;;;;;;;;;;4972298;28;20514;-48
2021/12/17 11:58:36;;;;;;;12.57;6.88;;;;;;;;;;4973601;28;20954;-46
2021/12/17 12:01:05;;;;;;;12.10;7.33;;;;;;;;;;4972908;28;20463;-45
2021/12/17 12:03:32;;;;;;;11.40;6.63;;;;;;;;;;4972209;28;20415;-47
2021/12/17 12:06:01;;;;;;;12.57;6.53;;;;;;;;;;4972803;28;20452;-44
2021/12/17 12:08:50;;;;;;;10.15;6.60;;;;;;;;;;4972679;28;20412;-46
2021/12/17 12:11:20;;;;;;;9.70;6.50;;;;;;;;;;4955939;28;20392;-49
2021/12/17 12:13:50;;;;;;;9.02;6.07;;;;;;;;;;4960162;28;20419;-45
2021/12/17 12:16:18;;;;;;;9.57;6.47;;;;;;;;;;4962538;28;20386;-46
2021/12/17 12:18:44;;;;;;;10.40;6.05;;;;;;;;;;4951594;28;20765;-48
2021/12/17 12:21:15;;;;;;;10.77;5.80;;;;;;;;;;4972776;28;20403;-47
2021/12/17 12:23:46;;;;;;;7.85;5.63;;;;;;;;;;4972734;28;20376;-46
2021/12/17 12:26:19;;;;;;;9.88;5.80;;;;;;;;;;4972473;28;20420;-47
2021/12/17 12:28:48;;;;;;;7.90;5.30;;;;;;;;;;4954895;28;20877;-48
2021/12/17 12:31:21;;;;;;;8.23;6.07;;;;;;;;;;4979264;28;20408;-47
2021/12/17 12:34:03;;;;;;;9.90;5.88;;;;;;;;;;4972500;28;20942;-47
2021/12/17 12:36:49;;;;;;;7.22;5.28;;;;;;;;;;4972198;28;20407;-48
2021/12/17 12:39:15;;;;;;;7.82;5.72;;;;;;;;;;4972289;28;20388;-48
2021/12/17 12:41:45;;;;;;;7.40;5.50;;;;;;;;;;4972645;28;20464;-47
2021/12/17 12:44:11;;;;;;;7.43;5.22;;;;;;;;;;4972572;28;20494;-46
2021/12/17 12:46:50;;;;;;;7.32;5.00;;;;;;;;;;4972110;28;20436;-50
2021/12/17 12:49:41;;;;;;;12.68;6.60;;;;;;;;;;4954778;28;20497;-46
2021/12/17 12:52:16;;;;;;;7.15;5.18;;;;;;;;;;4962206;28;20389;-49
2021/12/17 12:54:48;;;;;;;7.57;5.22;;;;;;;;;;4972648;28;20781;-47
2021/12/17 12:57:25;;;;;;;6.18;4.85;;;;;;;;;;4954421;28;20451;-48
2021/12/17 12:59:57;;;;;;;9.05;5.22;;;;;;;;;;4972477;28;20808;-50
2021/12/17 13:02:27;;;;;;;7.83;4.70;;;;;;;;;;4955026;28;20384;-48
2021/12/17 13:04:58;;;;;;;7.90;4.95;;;;;;;;;;4971955;28;20376;-48
2021/12/17 13:07:38;;;;;;;6.75;4.72;;;;;;;;;;4971934;28;20448;-47
2021/12/17 13:10:09;;;;;;;7.47;4.78;;;;;;;;;;4972308;28;20395;-48
2021/12/17 13:12:37;;;;;;;8.45;5.38;;;;;;;;;;4971552;28;20785;-47
2021/12/17 13:15:19;;;;;;;6.00;4.30;;;;;;;;;;4954794;28;20381;-47
2021/12/17 13:21:17;;;;;;;6.13;4.68;;;;;;;;;;4927507;29;20423;-48
2021/12/17 13:23:51;;;;;;;6.07;4.45;;;;;;;;;;4961499;28;20380;-46
2021/12/17 13:26:18;;;;;;;7.65;4.65;;;;;;;;;;4972120;28;20499;-45
2021/12/17 13:28:47;;;;;;;5.80;4.40;;;;;;;;;;4939934;28;20757;-47
2021/12/17 13:31:29;;;;;;;6.90;4.40;;;;;;;;;;4969823;28;20411;-44
2021/12/17 13:33:55;;;;;;;7.80;5.07;;;;;;;;;;4971973;28;20379;-47
2021/12/17 13:36:23;;;;;;;6.13;4.17;;;;;;;;;;4954818;28;20385;-46
2021/12/17 13:38:59;;;;;;;6.50;4.60;;;;;;;;;;4954328;28;20392;-49
2021/12/17 13:41:40;;;;;;;6.70;4.18;;;;;;;;;;4959444;28;20388;-46
2021/12/17 13:44:26;;;;;;;6.43;4.32;;;;;;;;;;4971868;28;20392;-46
2021/12/17 13:46:53;;;;;;;5.85;4.40;;;;;;;;;;4973915;28;20448;-45
2021/12/17 13:49:25;;;;;;;7.55;4.68;;;;;;;;;;4974956;28;20921;-45
2021/12/17 13:51:54;;;;;;;6.60;4.50;;;;;;;;;;4974644;28;20388;-46
2021/12/17 13:54:22;;;;;;;5.90;4.20;;;;;;;;;;4976175;28;20388;-47
2021/12/17 13:56:55;;;;;;;6.15;4.35;;;;;;;;;;4974381;28;20750;-48
2021/12/17 13:59:31;;;;;;;7.22;4.68;;;;;;;;;;4964405;28;20756;-50
2021/12/17 14:01:58;;;;;;;5.03;4.05;;;;;;;;;;4974945;28;20380;-46
2021/12/17 14:04:24;;;;;;;4.95;3.90;;;;;;;;;;4975530;28;20792;-49
2021/12/17 14:06:52;;;;;;;5.72;4.00;;;;;;;;;;4974713;28;20422;-44
2021/12/17 14:09:23;;;;;;;6.13;4.00;;;;;;;;;;4975643;28;20400;-45
2021/12/17 14:11:51;;;;;;;5.85;4.20;;;;;;;;;;4974492;28;20463;-45
2021/12/17 14:14:25;;;;;;;5.10;3.90;;;;;;;;;;4975105;28;20384;-45
2021/12/17 14:16:58;;;;;;;6.10;4.20;;;;;;;;;;4975297;28;20380;-45
2021/12/17 14:19:47;;;;;;;6.63;4.50;;;;;;;;;;4974242;28;20757;-46
2021/12/17 14:22:27;;;;;;;6.40;4.10;;;;;;;;;;4974432;28;20384;-45
2021/12/17 14:24:54;;;;;;;5.90;4.20;;;;;;;;;;4974855;28;20377;-46
2021/12/17 14:27:22;;;;;;;5.93;4.20;;;;;;;;;;4974648;28;20540;-48
2021/12/17 14:30:01;;;;;;;7.05;4.30;;;;;;;;;;4974343;28;20749;-46
2021/12/17 14:32:30;;;;;;;5.00;4.10;;;;;;;;;;4967753;28;20431;-47
2021/12/17 14:34:59;;;;;;;5.40;3.92;;;;;;;;;;4974569;28;20399;-47
2021/12/17 14:37:29;;;;;;;5.97;4.10;;;;;;;;;;4957341;28;20392;-48
2021/12/17 14:39:57;;;;;;;5.87;4.17;;;;;;;;;;4974247;28;20462;-49
2021/12/17 14:42:32;;;;;;;5.75;4.10;;;;;;;;;;4973864;28;20482;-45
2021/12/17 14:45:07;;;;;;;6.78;4.22;;;;;;;;;;4962343;28;20896;-52
2021/12/17 14:47:48;;;;;;;5.97;3.58;;;;;;;;;;4973737;28;20403;-53
2021/12/17 15:01:50;;;;;;;7.07;4.40;;;;;;;;;;4972891;28;20562;-48
2021/12/17 15:04:03;;;;;;;7.78;4.22;;;;;;;;;;4981571;28;20498;-48
2021/12/17 15:06:29;;;;;;;6.95;4.55;;;;;;;;;;4968197;28;20507;-48
2021/12/17 15:08:57;;;;;;;6.30;4.15;;;;;;;;;;4970577;28;20420;-47
2021/12/17 15:11:36;;;;;;;7.07;4.72;;;;;;;;;;4966470;28;20392;-46
2021/12/17 15:14:03;;;;;;;5.93;4.20;;;;;;;;;;4964308;28;20899;-45
2021/12/17 15:16:29;;;;;;;6.70;4.30;;;;;;;;;;4973366;28;20792;-47
2021/12/17 15:18:55;;;;;;;7.05;4.10;;;;;;;;;;4963818;28;20408;-52
2021/12/17 15:21:21;;;;;;;6.55;4.47;;;;;;;;;;4951892;28;20462;-49
2021/12/17 15:23:47;;;;;;;7.13;4.60;;;;;;;;;;4970659;28;20401;-49
2021/12/17 15:26:13;;;;;;;6.97;4.32;;;;;;;;;;4962194;28;20416;-50
2021/12/17 15:28:39;;;;;;;6.00;4.00;;;;;;;;;;4966320;28;20451;-48
2021/12/17 15:31:06;;;;;;;6.95;4.63;;;;;;;;;;4952434;28;20420;-49
2021/12/17 15:33:34;;;;;;;5.07;4.03;;;;;;;;;;4953832;28;20428;-47
2021/12/17 15:36:00;;;;;;;6.22;4.20;;;;;;;;;;4965339;28;20899;-48
2021/12/17 15:38:26;;;;;;;6.70;4.37;;;;;;;;;;4967710;28;20376;-51
2021/12/17 15:40:53;;;;;;;8.07;4.90;;;;;;;;;;4921795;28;20456;-49
2021/12/17 15:43:23;;;;;;;5.83;3.87;;;;;;;;;;4962508;28;20392;-47
2021/12/17 15:45:50;;;;;;;6.32;4.13;;;;;;;;;;4965471;28;20436;-48
2021/12/17 15:48:17;;;;;;;6.10;4.15;;;;;;;;;;4966050;28;20413;-48
2021/12/17 15:50:43;;;;;;;7.25;4.43;;;;;;;;;;4956323;28;20413;-49
2021/12/17 15:53:09;;;;;;;8.70;4.23;;;;;;;;;;4966945;28;20415;-49
2021/12/17 15:55:43;;;;;;;7.05;4.50;;;;;;;;;;4977530;28;20450;-49
2021/12/17 15:58:09;;;;;;;5.17;4.03;;;;;;;;;;4950676;29;20390;-49
2021/12/17 16:00:39;;;;;;;6.55;4.00;;;;;;;;;;4959527;28;20429;-47
2021/12/17 16:03:14;;;;;;;6.43;4.33;;;;;;;;;;4968932;28;20482;-48
2021/12/17 16:05:40;;;;;;;5.68;3.92;;;;;;;;;;4952081;28;20436;-48
2021/12/17 16:08:11;;;;;;;6.50;4.10;;;;;;;;;;4962774;28;20438;-47
2021/12/17 16:21:00;;;;;;;7.53;4.28;;;;;;;;;;4963925;28;20805;-51
2021/12/17 16:21:42;;;;;;;7.13;4.32;;;;;;;;;;4968333;28;20510;-50
2021/12/17 16:24:08;;;;;;;5.63;3.97;;;;;;;;;;4966179;28;20451;-47
2021/12/17 16:26:34;;;;;;;7.20;4.60;;;;;;;;;;4965030;28;20420;-46
2021/12/17 16:29:00;;;;;;;7.30;4.40;;;;;;;;;;4971530;28;20396;-48
2021/12/17 16:31:30;;;;;;;5.97;4.13;;;;;;;;;;4973137;28;20531;-47
2021/12/17 16:33:58;;;;;;;6.60;4.47;;;;;;;;;;4970313;28;20412;-48
2021/12/17 16:36:25;;;;;;;6.60;4.18;;;;;;;;;;4968159;28;20384;-51
2021/12/17 16:38:52;;;;;;;6.35;4.50;;;;;;;;;;4962628;28;20385;-46
2021/12/17 16:41:20;;;;;;;6.30;4.50;;;;;;;;;;4971809;28;20377;-48
2021/12/17 16:43:46;;;;;;;7.65;4.85;;;;;;;;;;4969909;28;20396;-55
2021/12/17 16:46:26;;;;;;;7.77;4.80;;;;;;;;;;4970939;28;20435;-48
2021/12/17 16:48:53;;;;;;;7.28;4.82;;;;;;;;;;4963566;28;20443;-49
2021/12/17 16:51:20;;;;;;;6.63;4.65;;;;;;;;;;4966106;28;20575;-49
2021/12/17 16:53:47;;;;;;;6.83;4.50;;;;;;;;;;4970098;28;20408;-47
2021/12/17 16:56:15;;;;;;;7.67;4.93;;;;;;;;;;4971667;28;20406;-49
2021/12/17 16:58:41;;;;;;;7.40;4.82;;;;;;;;;;4962580;28;20380;-50
2021/12/17 17:01:07;;;;;;;7.10;4.60;;;;;;;;;;4971531;28;20380;-46
2021/12/17 17:03:33;;;;;;;6.90;4.60;;;;;;;;;;4971569;28;20391;-46
2021/12/17 17:06:01;;;;;;;6.25;4.40;;;;;;;;;;4970909;28;21221;-49
2021/12/17 17:08:27;;;;;;;6.63;4.40;;;;;;;;;;4945285;28;20455;-46
2021/12/17 17:11:00;;;;;;;6.40;4.53;;;;;;;;;;4968843;28;20396;-47
2021/12/17 17:13:26;;;;;;;6.13;4.30;;;;;;;;;;4966673;28;20395;-48
2021/12/17 17:15:53;;;;;;;6.45;4.40;;;;;;;;;;4966153;28;20382;-48
2021/12/17 17:18:20;;;;;;;6.45;4.40;;;;;;;;;;4948583;28;20392;-49
2021/12/17 17:20:46;;;;;;;8.00;5.43;;;;;;;;;;4966547;28;20400;-47
2021/12/17 17:23:15;;;;;;;18.05;10.75;;;;;;;;;;4973811;28;20562;-45
2021/12/17 17:25:41;;;;;;;21.80;12.57;;;;;;;;;;4974353;28;20416;-47
2021/12/17 17:28:09;;;;;;;25.80;15.67;;;;;;;;;;4969335;28;20440;-49
2021/12/17 17:30:37;;;;;;;26.83;16.15;;;;;;;;;;4956861;28;20466;-46
2021/12/17 17:33:03;;;;;;;26.45;16.88;;;;;;;;;;4975126;28;20422;-50
2021/12/17 17:35:30;;;;;;;27.83;16.73;;;;;;;;;;4974308;28;20773;-46
2021/12/17 17:37:59;;;;;;;30.20;18.55;;;;;;;;;;4975184;28;20408;-47
2021/12/17 17:40:25;;;;;;;32.07;19.40;;;;;;;;;;4975017;28;20471;-49
2021/12/17 17:42:51;;;;;;;30.25;19.08;;;;;;;;;;4973772;28;20455;-51
2021/12/17 17:45:17;;;;;;;32.38;20.65;;;;;;;;;;4973596;28;20382;-47
2021/12/17 17:47:48;;;;;;;31.93;19.67;;;;;;;;;;4973550;28;20936;-48
2021/12/17 17:50:14;;;;;;;30.17;18.95;;;;;;;;;;4973346;28;20372;-49
2021/12/17 17:52:40;;;;;;;31.05;19.88;;;;;;;;;;4972908;28;20898;-50
2021/12/17 17:55:06;;;;;;;29.85;18.73;;;;;;;;;;4973805;28;20478;-51
2021/12/17 17:57:32;;;;;;;27.30;18.25;;;;;;;;;;4975291;28;20376;-52
2021/12/17 17:59:59;;;;;;;24.83;16.88;;;;;;;;;;4975127;28;20469;-47
2021/12/17 18:02:28;;;;;;;28.33;18.38;;;;;;;;;;4974423;28;20392;-48
2021/12/17 18:04:54;;;;;;;29.20;18.48;;;;;;;;;;4975799;28;20389;-49
2021/12/17 18:07:20;;;;;;;26.45;17.42;;;;;;;;;;4976453;28;20467;-49
2021/12/17 18:09:46;;;;;;;27.27;17.67;;;;;;;;;;4980385;28;20384;-51
2021/12/17 18:12:13;;;;;;;25.42;15.85;;;;;;;;;;4969846;28;20804;-49
2021/12/17 18:14:42;;;;;;;27.25;17.00;;;;;;;;;;4975092;28;20396;-49
2021/12/17 18:17:08;;;;;;;22.92;15.85;;;;;;;;;;4975186;28;20376;-49
2021/12/17 18:19:35;;;;;;;23.67;15.05;;;;;;;;;;4969309;28;20479;-48
2021/12/17 18:22:01;;;;;;;23.05;15.25;;;;;;;;;;4974843;28;20381;-48
2021/12/17 18:24:28;;;;;;;22.40;14.57;;;;;;;;;;4970138;28;20484;-48
2021/12/17 18:26:54;;;;;;;21.95;14.60;;;;;;;;;;4975009;28;20459;-48
2021/12/17 18:29:20;;;;;;;23.10;14.97;;;;;;;;;;4976812;28;20389;-50
2021/12/17 18:31:46;;;;;;;23.73;14.88;;;;;;;;;;4977437;28;20385;-52
2021/12/17 18:34:12;;;;;;;21.13;13.65;;;;;;;;;;4955730;28;20412;-51
2021/12/17 18:36:40;;;;;;;21.45;13.65;;;;;;;;;;4961782;28;20807;-45
2021/12/17 18:39:07;;;;;;;18.25;12.60;;;;;;;;;;4972875;28;20396;-48
2021/12/17 18:41:43;;;;;;;21.75;14.18;;;;;;;;;;4970016;28;20467;-50
2021/12/17 18:44:12;;;;;;;19.40;12.80;;;;;;;;;;4956930;28;20397;-51
2021/12/17 18:46:43;;;;;;;20.88;13.30;;;;;;;;;;4957192;28;20432;-50
2021/12/17 18:49:13;;;;;;;22.20;13.15;;;;;;;;;;4973817;28;20895;-48
2021/12/17 18:51:44;;;;;;;18.80;12.98;;;;;;;;;;4973316;28;20389;-51
2021/12/17 18:54:13;;;;;;;20.67;13.85;;;;;;;;;;4956002;28;20400;-50
2021/12/17 18:56:43;;;;;;;20.75;13.68;;;;;;;;;;4973221;28;20904;-50
2021/12/17 18:59:12;;;;;;;18.60;13.00;;;;;;;;;;4972637;28;20423;-52
2021/12/17 19:01:41;;;;;;;18.85;12.98;;;;;;;;;;4973690;28;20877;-49
2021/12/17 19:04:10;;;;;;;19.13;12.73;;;;;;;;;;4974371;28;20802;-47
2021/12/17 19:06:43;;;;;;;18.95;12.52;;;;;;;;;;4974328;28;20427;-48
2021/12/17 19:09:09;;;;;;;16.95;11.70;;;;;;;;;;4974354;28;20416;-49
2021/12/17 19:11:36;;;;;;;18.33;12.30;;;;;;;;;;4973928;28;20400;-50
2021/12/17 19:14:08;;;;;;;19.10;12.93;;;;;;;;;;4974349;28;20406;-49
2021/12/17 19:16:35;;;;;;;17.63;11.98;;;;;;;;;;4974013;28;20400;-48
2021/12/17 19:19:09;;;;;;;19.50;11.88;;;;;;;;;;4973365;28;20412;-54
2021/12/17 19:21:55;;;;;;;15.55;10.85;;;;;;;;;;4973808;28;20389;-49
2021/12/17 19:24:23;;;;;;;17.10;11.50;;;;;;;;;;4973822;28;20399;-48
2021/12/17 19:26:49;;;;;;;15.25;10.55;;;;;;;;;;4973940;28;20447;-48
2021/12/17 19:29:18;;;;;;;15.63;10.27;;;;;;;;;;4976120;28;20380;-49
2021/12/17 19:31:44;;;;;;;14.35;10.32;;;;;;;;;;4970515;28;20404;-49
2021/12/17 19:34:12;;;;;;;15.23;10.35;;;;;;;;;;4969087;28;20908;-48
2021/12/17 19:36:38;;;;;;;14.77;10.23;;;;;;;;;;4972635;28;20393;-48
2021/12/17 19:39:10;;;;;;;14.82;10.63;;;;;;;;;;4973735;28;20391;-49
2021/12/17 19:41:39;;;;;;;15.98;11.05;;;;;;;;;;4973268;28;20435;-50
2021/12/17 19:44:08;;;;;;;15.82;11.05;;;;;;;;;;4968437;28;20381;-48
2021/12/17 19:46:43;;;;;;;15.70;10.90;;;;;;;;;;4972194;28;20467;-48
2021/12/17 19:51:44;;;;;;;14.98;11.48;;;;;;;;;;4973440;28;20384;-48
2021/12/17 19:54:10;;;;;;;14.23;11.30;;;;;;;;;;4967005;28;20488;-51
2021/12/17 19:56:37;;;;;;;16.07;11.67;;;;;;;;;;4966549;28;20412;-48
2021/12/17 19:59:08;;;;;;;17.20;13.02;;;;;;;;;;4955750;28;20463;-48
2021/12/17 20:01:40;;;;;;;15.57;12.10;;;;;;;;;;4973595;28;20432;-49
2021/12/17 20:04:09;;;;;;;15.13;11.52;;;;;;;;;;4974287;28;20398;-48
2021/12/17 20:06:45;;;;;;;14.73;11.40;;;;;;;;;;4973074;28;20424;-48
2021/12/17 20:09:17;;;;;;;16.02;11.10;;;;;;;;;;4973191;28;20420;-50
2021/12/17 20:11:49;;;;;;;16.27;11.60;;;;;;;;;;4972650;28;20754;-49
2021/12/17 20:14:15;;;;;;;15.18;11.75;;;;;;;;;;4973427;28;20425;-49
2021/12/17 20:16:41;;;;;;;15.70;11.52;;;;;;;;;;4972747;28;20415;-51
2021/12/17 20:19:14;;;;;;;17.27;12.88;;;;;;;;;;4955437;28;20401;-49
2021/12/17 20:21:42;;;;;;;14.45;11.25;;;;;;;;;;4956378;28;20860;-52
2021/12/17 20:24:09;;;;;;;15.55;11.55;;;;;;;;;;4969659;28;20388;-51
2021/12/17 20:26:36;;;;;;;16.73;12.40;;;;;;;;;;4972337;28;20432;-48
2021/12/17 20:29:03;;;;;;;15.23;12.02;;;;;;;;;;4972528;28;20884;-51
2021/12/17 20:31:29;;;;;;;15.23;11.50;;;;;;;;;;4967979;28;20418;-51
2021/12/17 20:33:57;;;;;;;14.95;11.68;;;;;;;;;;4973150;28;20869;-49
2021/12/17 20:36:23;;;;;;;17.17;12.70;;;;;;;;;;4972176;28;20396;-50
2021/12/17 20:38:57;;;;;;;15.73;12.20;;;;;;;;;;4972201;28;20403;-52
2021/12/17 20:41:24;;;;;;;16.55;12.10;;;;;;;;;;4955426;28;20427;-49
2021/12/17 20:43:51;;;;;;;14.63;11.35;;;;;;;;;;4972823;28;20399;-50
2021/12/17 20:46:17;;;;;;;14.30;11.07;;;;;;;;;;4969785;28;20428;-48
2021/12/17 20:48:47;;;;;;;15.43;11.93;;;;;;;;;;4955169;28;20385;-51
2021/12/17 20:51:13;;;;;;;15.60;11.70;;;;;;;;;;4972076;28;20408;-53
2021/12/17 20:53:40;;;;;;;15.63;11.20;;;;;;;;;;4972890;28;20403;-51
2021/12/17 20:56:06;;;;;;;15.35;11.45;;;;;;;;;;4971404;28;20437;-51
2021/12/17 20:58:33;;;;;;;15.83;11.77;;;;;;;;;;4972625;28;20365;-51
2021/12/17 21:00:59;;;;;;;14.82;11.15;;;;;;;;;;4972488;28;20388;-49
2021/12/17 21:03:25;;;;;;;14.68;11.20;;;;;;;;;;4972064;28;20924;-52
2021/12/17 21:05:51;;;;;;;14.65;10.93;;;;;;;;;;4971701;28;20470;-52
2021/12/17 21:08:18;;;;;;;15.00;11.35;;;;;;;;;;4972012;28;20988;-53
2021/12/17 21:10:46;;;;;;;15.40;11.00;;;;;;;;;;4972513;28;20380;-48
2021/12/17 21:13:13;;;;;;;16.10;11.50;;;;;;;;;;4972123;28;20446;-50
2021/12/17 21:15:41;;;;;;;14.75;10.30;;;;;;;;;;4971777;28;20391;-51
2021/12/17 21:18:08;;;;;;;14.93;10.80;;;;;;;;;;4972308;28;20384;-49
2021/12/17 21:20:36;;;;;;;13.90;10.60;;;;;;;;;;4971691;28;20395;-49
2021/12/17 21:23:03;;;;;;;14.55;10.70;;;;;;;;;;4971906;28;20380;-48
2021/12/17 21:25:30;;;;;;;15.45;10.73;;;;;;;;;;4971652;28;20368;-50
2021/12/17 21:27:59;;;;;;;12.98;9.98;;;;;;;;;;4972478;28;20388;-48
2021/12/17 21:30:29;;;;;;;13.48;10.10;;;;;;;;;;4977053;28;20389;-47
2021/12/17 21:33:00;;;;;;;15.38;11.25;;;;;;;;;;4972433;28;20388;-48
2021/12/17 21:35:29;;;;;;;14.73;10.60;;;;;;;;;;4972380;28;20415;-47
2021/12/17 21:38:01;;;;;;;14.57;10.02;;;;;;;;;;4971820;28;21005;-52
2021/12/17 21:40:30;;;;;;;14.57;10.37;;;;;;;;;;4969894;28;20423;-51
2021/12/17 21:42:56;;;;;;;14.87;10.17;;;;;;;;;;4959200;28;20384;-50
2021/12/17 21:45:22;;;;;;;14.33;9.80;;;;;;;;;;4970527;28;20426;-47
2021/12/17 21:47:50;;;;;;;13.05;9.75;;;;;;;;;;4971011;28;20415;-51
2021/12/17 21:50:19;;;;;;;12.00;8.98;;;;;;;;;;4971797;28;20873;-49
2021/12/17 21:52:49;;;;;;;12.50;9.48;;;;;;;;;;4971787;28;20762;-50
2021/12/17 21:55:17;;;;;;;11.55;9.07;;;;;;;;;;4971544;28;20420;-48
2021/12/17 21:57:43;;;;;;;12.18;8.82;;;;;;;;;;4972225;28;20380;-53
2021/12/17 22:00:11;;;;;;;12.15;8.95;;;;;;;;;;4971929;28;20404;-51
2021/12/17 22:02:38;;;;;;;12.57;9.23;;;;;;;;;;4972699;28;20384;-50
2021/12/17 22:05:04;;;;;;;12.40;8.93;;;;;;;;;;4982059;28;20400;-50
2021/12/17 22:07:31;;;;;;;11.17;8.17;;;;;;;;;;4973470;28;20428;-47
2021/12/17 22:09:58;;;;;;;11.48;8.45;;;;;;;;;;4975672;28;20869;-53
2021/12/17 22:12:27;;;;;;;12.20;8.70;;;;;;;;;;4975054;28;20369;-52
2021/12/17 22:14:57;;;;;;;11.67;8.37;;;;;;;;;;4956782;28;20384;-50
2021/12/17 22:17:28;;;;;;;10.82;7.78;;;;;;;;;;4975388;28;20372;-50
2021/12/17 22:20:08;;;;;;;11.25;8.38;;;;;;;;;;4975063;28;20477;-48
2021/12/17 22:22:40;;;;;;;12.03;8.37;;;;;;;;;;4974483;28;20765;-50
2021/12/17 22:25:09;;;;;;;11.27;8.38;;;;;;;;;;4974964;28;20400;-52
2021/12/17 22:27:35;;;;;;;11.52;8.30;;;;;;;;;;4975035;28;20428;-51
2021/12/17 22:30:03;;;;;;;12.95;8.15;;;;;;;;;;4979930;28;20396;-48
2021/12/17 22:32:29;;;;;;;11.57;7.93;;;;;;;;;;4975012;28;20800;-51
2021/12/17 22:34:58;;;;;;;12.97;8.20;;;;;;;;;;4974830;28;20392;-51
2021/12/17 22:37:28;;;;;;;11.85;8.13;;;;;;;;;;4975130;28;20450;-50
2021/12/17 22:39:54;;;;;;;10.25;7.85;;;;;;;;;;4972772;28;20465;-50
2021/12/17 22:42:20;;;;;;;11.35;8.15;;;;;;;;;;4974701;28;20376;-49
2021/12/17 22:44:51;;;;;;;10.85;7.72;;;;;;;;;;4957565;28;20901;-50
2021/12/17 22:47:23;;;;;;;12.07;7.85;;;;;;;;;;4974938;28;20464;-50
2021/12/17 22:49:53;;;;;;;11.15;7.53;;;;;;;;;;4962172;28;20388;-53
2021/12/17 22:52:24;;;;;;;11.55;8.20;;;;;;;;;;4974898;28;20376;-47
2021/12/17 22:54:55;;;;;;;11.82;8.13;;;;;;;;;;4974673;28;20912;-53
2021/12/17 22:57:29;;;;;;;11.25;8.05;;;;;;;;;;4975016;28;20787;-50
2021/12/17 23:00:01;;;;;;;11.67;8.07;;;;;;;;;;4962081;28;20384;-49
2021/12/17 23:02:35;;;;;;;10.52;7.90;;;;;;;;;;4974712;28;20463;-53
2021/12/17 23:05:11;;;;;;;11.25;7.85;;;;;;;;;;4963525;28;20478;-51
2021/12/17 23:08:08;;;;;;;11.70;8.00;;;;;;;;;;4974474;28;20428;-51
2021/12/17 23:10:34;;;;;;;11.73;8.40;;;;;;;;;;4974543;28;20544;-48
2021/12/17 23:13:05;;;;;;;12.37;8.50;;;;;;;;;;4974387;28;20383;-46
2021/12/17 23:15:36;;;;;;;12.20;8.13;;;;;;;;;;4974316;28;20423;-49
2021/12/17 23:18:10;;;;;;;10.30;7.43;;;;;;;;;;4957027;28;20423;-48
2021/12/17 23:20:41;;;;;;;10.65;7.93;;;;;;;;;;4974130;28;20422;-49
2021/12/17 23:23:13;;;;;;;11.50;8.10;;;;;;;;;;4956488;28;20388;-48
2021/12/17 23:25:42;;;;;;;11.80;8.13;;;;;;;;;;4974141;28;20460;-49